sensor_id;sensor_type;location;lat;lon;timestamp;P1;durP1;ratioP1;P2;durP2;ratioP2
50851;SDS011;43953;45.508;-122.806;2023-11-19T00:00:10;1.15;;;0.90;;
50851;SDS011;43953;45.508;-122.806;2023-11-19T00:00:42;2.67;;;1.00;;
50851;SDS011;43953;45.508;-122.806;2023-11-19T00:01:14;1.80;;;1.00;;
50851;SDS011;43953;45.508;-122.806;2023-11-19T00:01:46;2.60;;;1.10;;
50851;SDS011;43953;45.508;-122.806;2023-11-19T00:02:18;0.95;;;0.90;;
50851;SDS011;43953;45.508;-122.806;2023-11-19T00:02:50;1.08;;;0.98;;
50851;SDS011;43953;45.508;-122.806;2023-11-19T00:03:22;1.92;;;0.80;;
50851;SDS011;43953;45.508;-122.806;2023-11-19T00:03:54;1.10;;;1.00;;
50851;SDS011;43953;45.508;-122.806;2023-11-19T00:04:25;0.98;;;0.85;;
50851;SDS011;43953;45.508;-122.806;2023-11-19T00:04:57;1.40;;;1.10;;
50851;SDS011;43953;45.508;-122.806;2023-11-19T00:05:29;2.15;;;1.00;;
50851;SDS011;43953;45.508;-122.806;2023-11-19T00:06:01;3.30;;;1.17;;
50851;SDS011;43953;45.508;-122.806;2023-11-19T00:06:33;0.90;;;0.90;;
50851;SDS011;43953;45.508;-122.806;2023-11-19T00:07:05;1.08;;;0.98;;
50851;SDS011;43953;45.508;-122.806;2023-11-19T00:07:38;1.98;;;0.90;;
50851;SDS011;43953;45.508;-122.806;2023-11-19T00:08:13;0.80;;;0.80;;
50851;SDS011;43953;45.508;-122.806;2023-11-19T00:08:44;2.33;;;1.08;;
50851;SDS011;43953;45.508;-122.806;2023-11-19T00:09:16;2.20;;;1.00;;
50851;SDS011;43953;45.508;-122.806;2023-11-19T00:09:48;1.63;;;1.08;;
50851;SDS011;43953;45.508;-122.806;2023-11-19T00:10:20;1.35;;;1.05;;
50851;SDS011;43953;45.508;-122.806;2023-11-19T00:10:52;1.60;;;1.15;;
50851;SDS011;43953;45.508;-122.806;2023-11-19T00:11:24;2.30;;;1.00;;
50851;SDS011;43953;45.508;-122.806;2023-11-19T00:11:56;1.92;;;1.10;;
50851;SDS011;43953;45.508;-122.806;2023-11-19T00:12:28;1.08;;;1.00;;
50851;SDS011;43953;45.508;-122.806;2023-11-19T00:13:00;1.10;;;1.00;;
50851;SDS011;43953;45.508;-122.806;2023-11-19T00:13:33;1.35;;;0.90;;
50851;SDS011;43953;45.508;-122.806;2023-11-19T00:14:05;0.85;;;0.80;;
50851;SDS011;43953;45.508;-122.806;2023-11-19T00:14:39;0.90;;;0.90;;
50851;SDS011;43953;45.508;-122.806;2023-11-19T00:15:14;1.00;;;0.90;;
50851;SDS011;43953;45.508;-122.806;2023-11-19T00:15:48;1.55;;;0.90;;
50851;SDS011;43953;45.508;-122.806;2023-11-19T00:16:20;1.00;;;0.73;;
50851;SDS011;43953;45.508;-122.806;2023-11-19T00:16:52;1.20;;;0.73;;
50851;SDS011;43953;45.508;-122.806;2023-11-19T00:17:24;1.00;;;0.82;;
50851;SDS011;43953;45.508;-122.806;2023-11-19T00:17:56;0.90;;;0.70;;
50851;SDS011;43953;45.508;-122.806;2023-11-19T00:18:27;0.90;;;0.90;;
50851;SDS011;43953;45.508;-122.806;2023-11-19T00:18:59;0.90;;;0.90;;
50851;SDS011;43953;45.508;-122.806;2023-11-19T00:19:31;0.88;;;0.80;;
50851;SDS011;43953;45.508;-122.806;2023-11-19T00:20:02;0.73;;;0.73;;
50851;SDS011;43953;45.508;-122.806;2023-11-19T00:20:36;2.15;;;0.77;;
50851;SDS011;43953;45.508;-122.806;2023-11-19T00:21:08;0.80;;;0.80;;
50851;SDS011;43953;45.508;-122.806;2023-11-19T00:21:40;0.70;;;0.70;;
50851;SDS011;43953;45.508;-122.806;2023-11-19T00:22:12;1.65;;;0.80;;
50851;SDS011;43953;45.508;-122.806;2023-11-19T00:22:44;1.08;;;0.65;;
50851;SDS011;43953;45.508;-122.806;2023-11-19T00:23:21;0.70;;;0.70;;
50851;SDS011;43953;45.508;-122.806;2023-11-19T00:23:54;0.93;;;0.80;;
50851;SDS011;43953;45.508;-122.806;2023-11-19T00:24:25;0.88;;;0.80;;
50851;SDS011;43953;45.508;-122.806;2023-11-19T00:24:57;0.75;;;0.65;;
50851;SDS011;43953;45.508;-122.806;2023-11-19T00:25:28;0.70;;;0.60;;
50851;SDS011;43953;45.508;-122.806;2023-11-19T00:26:00;0.75;;;0.60;;
50851;SDS011;43953;45.508;-122.806;2023-11-19T00:26:32;2.00;;;1.00;;
50851;SDS011;43953;45.508;-122.806;2023-11-19T00:27:03;0.93;;;0.82;;
50851;SDS011;43953;45.508;-122.806;2023-11-19T00:27:35;0.82;;;0.80;;
50851;SDS011;43953;45.508;-122.806;2023-11-19T00:28:10;1.05;;;1.00;;
50851;SDS011;43953;45.508;-122.806;2023-11-19T00:28:42;0.80;;;0.70;;
50851;SDS011;43953;45.508;-122.806;2023-11-19T00:29:14;0.80;;;0.80;;
50851;SDS011;43953;45.508;-122.806;2023-11-19T00:29:46;1.00;;;0.90;;
50851;SDS011;43953;45.508;-122.806;2023-11-19T00:30:17;0.73;;;0.73;;
50851;SDS011;43953;45.508;-122.806;2023-11-19T00:30:49;0.82;;;0.70;;
50851;SDS011;43953;45.508;-122.806;2023-11-19T00:31:21;0.73;;;0.70;;
50851;SDS011;43953;45.508;-122.806;2023-11-19T00:31:52;1.65;;;1.02;;
50851;SDS011;43953;45.508;-122.806;2023-11-19T00:32:24;2.60;;;0.77;;
50851;SDS011;43953;45.508;-122.806;2023-11-19T00:32:56;1.17;;;0.70;;
50851;SDS011;43953;45.508;-122.806;2023-11-19T00:33:27;1.60;;;0.95;;
50851;SDS011;43953;45.508;-122.806;2023-11-19T00:34:00;1.17;;;1.00;;
50851;SDS011;43953;45.508;-122.806;2023-11-19T00:34:32;1.00;;;0.80;;
50851;SDS011;43953;45.508;-122.806;2023-11-19T00:35:04;1.15;;;1.05;;
50851;SDS011;43953;45.508;-122.806;2023-11-19T00:35:36;0.80;;;0.80;;
50851;SDS011;43953;45.508;-122.806;2023-11-19T00:36:08;1.10;;;0.80;;
50851;SDS011;43953;45.508;-122.806;2023-11-19T00:36:40;0.80;;;0.80;;
50851;SDS011;43953;45.508;-122.806;2023-11-19T00:37:12;1.75;;;0.80;;
50851;SDS011;43953;45.508;-122.806;2023-11-19T00:37:43;1.23;;;0.57;;
50851;SDS011;43953;45.508;-122.806;2023-11-19T00:38:16;1.13;;;1.02;;
50851;SDS011;43953;45.508;-122.806;2023-11-19T00:38:48;1.42;;;1.20;;
50851;SDS011;43953;45.508;-122.806;2023-11-19T00:39:19;1.02;;;1.00;;
50851;SDS011;43953;45.508;-122.806;2023-11-19T00:39:52;1.15;;;0.93;;
50851;SDS011;43953;45.508;-122.806;2023-11-19T00:40:23;1.60;;;1.00;;
50851;SDS011;43953;45.508;-122.806;2023-11-19T00:40:55;1.48;;;0.80;;
50851;SDS011;43953;45.508;-122.806;2023-11-19T00:41:27;1.45;;;1.02;;
50851;SDS011;43953;45.508;-122.806;2023-11-19T00:41:59;1.50;;;0.82;;
50851;SDS011;43953;45.508;-122.806;2023-11-19T00:42:30;0.90;;;0.90;;
50851;SDS011;43953;45.508;-122.806;2023-11-19T00:43:02;1.17;;;0.90;;
50851;SDS011;43953;45.508;-122.806;2023-11-19T00:43:34;0.70;;;0.70;;
50851;SDS011;43953;45.508;-122.806;2023-11-19T00:44:05;1.65;;;1.20;;
50851;SDS011;43953;45.508;-122.806;2023-11-19T00:44:37;1.88;;;0.90;;
50851;SDS011;43953;45.508;-122.806;2023-11-19T00:45:09;2.58;;;1.00;;
50851;SDS011;43953;45.508;-122.806;2023-11-19T00:45:41;2.03;;;0.90;;
50851;SDS011;43953;45.508;-122.806;2023-11-19T00:46:13;2.15;;;1.00;;
50851;SDS011;43953;45.508;-122.806;2023-11-19T00:46:45;1.00;;;0.90;;
50851;SDS011;43953;45.508;-122.806;2023-11-19T00:47:17;2.72;;;1.02;;
50851;SDS011;43953;45.508;-122.806;2023-11-19T00:47:51;2.45;;;1.08;;
50851;SDS011;43953;45.508;-122.806;2023-11-19T00:48:22;2.75;;;0.95;;
50851;SDS011;43953;45.508;-122.806;2023-11-19T00:48:54;2.53;;;0.90;;
50851;SDS011;43953;45.508;-122.806;2023-11-19T00:49:26;2.15;;;1.20;;
50851;SDS011;43953;45.508;-122.806;2023-11-19T00:49:58;4.18;;;1.40;;
50851;SDS011;43953;45.508;-122.806;2023-11-19T00:50:29;2.28;;;1.08;;
50851;SDS011;43953;45.508;-122.806;2023-11-19T00:51:02;1.55;;;1.23;;
50851;SDS011;43953;45.508;-122.806;2023-11-19T00:51:34;2.28;;;1.17;;
50851;SDS011;43953;45.508;-122.806;2023-11-19T00:52:06;4.90;;;0.93;;
50851;SDS011;43953;45.508;-122.806;2023-11-19T00:52:38;1.50;;;1.05;;
50851;SDS011;43953;45.508;-122.806;2023-11-19T00:53:10;1.50;;;0.95;;
50851;SDS011;43953;45.508;-122.806;2023-11-19T00:53:42;2.25;;;1.02;;
50851;SDS011;43953;45.508;-122.806;2023-11-19T00:54:13;4.30;;;1.63;;
50851;SDS011;43953;45.508;-122.806;2023-11-19T00:54:45;3.65;;;1.25;;
50851;SDS011;43953;45.508;-122.806;2023-11-19T00:55:17;1.27;;;1.00;;
50851;SDS011;43953;45.508;-122.806;2023-11-19T00:55:48;2.30;;;1.05;;
50851;SDS011;43953;45.508;-122.806;2023-11-19T00:56:20;1.88;;;1.20;;
50851;SDS011;43953;45.508;-122.806;2023-11-19T00:56:52;2.38;;;1.20;;
50851;SDS011;43953;45.508;-122.806;2023-11-19T00:57:24;3.40;;;1.10;;
50851;SDS011;43953;45.508;-122.806;2023-11-19T00:57:57;4.70;;;1.10;;
50851;SDS011;43953;45.508;-122.806;2023-11-19T00:58:29;1.77;;;1.00;;
50851;SDS011;43953;45.508;-122.806;2023-11-19T00:59:00;4.88;;;1.42;;
50851;SDS011;43953;45.508;-122.806;2023-11-19T00:59:32;0.95;;;0.70;;
50851;SDS011;43953;45.508;-122.806;2023-11-19T01:00:06;2.33;;;1.05;;
50851;SDS011;43953;45.508;-122.806;2023-11-19T01:00:49;0.90;;;0.80;;
50851;SDS011;43953;45.508;-122.806;2023-11-19T01:01:21;1.60;;;1.00;;
50851;SDS011;43953;45.508;-122.806;2023-11-19T01:01:53;6.93;;;1.27;;
50851;SDS011;43953;45.508;-122.806;2023-11-19T01:02:25;2.10;;;0.90;;
50851;SDS011;43953;45.508;-122.806;2023-11-19T01:02:56;2.22;;;0.90;;
50851;SDS011;43953;45.508;-122.806;2023-11-19T01:03:28;3.80;;;0.93;;
50851;SDS011;43953;45.508;-122.806;2023-11-19T01:03:59;2.75;;;1.25;;
50851;SDS011;43953;45.508;-122.806;2023-11-19T01:04:34;6.00;;;1.10;;
50851;SDS011;43953;45.508;-122.806;2023-11-19T01:05:07;2.22;;;1.00;;
50851;SDS011;43953;45.508;-122.806;2023-11-19T01:05:39;4.25;;;1.10;;
50851;SDS011;43953;45.508;-122.806;2023-11-19T01:06:12;3.63;;;1.05;;
50851;SDS011;43953;45.508;-122.806;2023-11-19T01:06:45;5.97;;;1.25;;
50851;SDS011;43953;45.508;-122.806;2023-11-19T01:07:17;2.40;;;1.10;;
50851;SDS011;43953;45.508;-122.806;2023-11-19T01:07:48;5.88;;;1.63;;
50851;SDS011;43953;45.508;-122.806;2023-11-19T01:08:21;2.88;;;1.10;;
50851;SDS011;43953;45.508;-122.806;2023-11-19T01:08:52;3.78;;;1.13;;
50851;SDS011;43953;45.508;-122.806;2023-11-19T01:09:24;3.88;;;1.20;;
50851;SDS011;43953;45.508;-122.806;2023-11-19T01:09:57;2.70;;;1.35;;
50851;SDS011;43953;45.508;-122.806;2023-11-19T01:10:29;2.10;;;1.10;;
50851;SDS011;43953;45.508;-122.806;2023-11-19T01:11:00;2.58;;;1.10;;
50851;SDS011;43953;45.508;-122.806;2023-11-19T01:11:33;3.50;;;1.48;;
50851;SDS011;43953;45.508;-122.806;2023-11-19T01:12:04;4.32;;;1.00;;
50851;SDS011;43953;45.508;-122.806;2023-11-19T01:12:36;3.90;;;1.00;;
50851;SDS011;43953;45.508;-122.806;2023-11-19T01:13:08;3.60;;;1.08;;
50851;SDS011;43953;45.508;-122.806;2023-11-19T01:13:41;5.78;;;1.50;;
50851;SDS011;43953;45.508;-122.806;2023-11-19T01:14:12;4.05;;;1.30;;
50851;SDS011;43953;45.508;-122.806;2023-11-19T01:14:44;3.63;;;1.30;;
50851;SDS011;43953;45.508;-122.806;2023-11-19T01:15:15;5.30;;;1.35;;
50851;SDS011;43953;45.508;-122.806;2023-11-19T01:15:49;4.65;;;1.58;;
50851;SDS011;43953;45.508;-122.806;2023-11-19T01:16:21;4.68;;;1.42;;
50851;SDS011;43953;45.508;-122.806;2023-11-19T01:16:53;4.68;;;1.63;;
50851;SDS011;43953;45.508;-122.806;2023-11-19T01:17:25;5.43;;;1.27;;
50851;SDS011;43953;45.508;-122.806;2023-11-19T01:17:57;3.65;;;1.52;;
50851;SDS011;43953;45.508;-122.806;2023-11-19T01:18:28;5.90;;;1.75;;
50851;SDS011;43953;45.508;-122.806;2023-11-19T01:19:00;4.18;;;1.40;;
50851;SDS011;43953;45.508;-122.806;2023-11-19T01:19:35;4.75;;;1.65;;
50851;SDS011;43953;45.508;-122.806;2023-11-19T01:20:07;8.25;;;1.40;;
50851;SDS011;43953;45.508;-122.806;2023-11-19T01:20:43;4.10;;;1.50;;
50851;SDS011;43953;45.508;-122.806;2023-11-19T01:21:14;5.03;;;1.27;;
50851;SDS011;43953;45.508;-122.806;2023-11-19T01:21:47;3.85;;;1.27;;
50851;SDS011;43953;45.508;-122.806;2023-11-19T01:22:18;7.95;;;1.73;;
50851;SDS011;43953;45.508;-122.806;2023-11-19T01:22:50;4.70;;;1.50;;
50851;SDS011;43953;45.508;-122.806;2023-11-19T01:23:22;3.53;;;1.60;;
50851;SDS011;43953;45.508;-122.806;2023-11-19T01:23:54;4.90;;;1.67;;
50851;SDS011;43953;45.508;-122.806;2023-11-19T01:24:26;6.05;;;1.67;;
50851;SDS011;43953;45.508;-122.806;2023-11-19T01:24:59;6.05;;;1.40;;
50851;SDS011;43953;45.508;-122.806;2023-11-19T01:25:31;6.43;;;1.48;;
50851;SDS011;43953;45.508;-122.806;2023-11-19T01:26:02;3.88;;;1.45;;
50851;SDS011;43953;45.508;-122.806;2023-11-19T01:26:36;6.68;;;1.50;;
50851;SDS011;43953;45.508;-122.806;2023-11-19T01:27:07;2.47;;;1.33;;
50851;SDS011;43953;45.508;-122.806;2023-11-19T01:27:39;4.75;;;1.42;;
50851;SDS011;43953;45.508;-122.806;2023-11-19T01:28:11;3.30;;;1.42;;
50851;SDS011;43953;45.508;-122.806;2023-11-19T01:28:42;2.38;;;1.15;;
50851;SDS011;43953;45.508;-122.806;2023-11-19T01:29:15;4.95;;;1.73;;
50851;SDS011;43953;45.508;-122.806;2023-11-19T01:29:47;4.45;;;1.40;;
50851;SDS011;43953;45.508;-122.806;2023-11-19T01:30:19;4.13;;;1.30;;
50851;SDS011;43953;45.508;-122.806;2023-11-19T01:30:51;6.95;;;1.88;;
50851;SDS011;43953;45.508;-122.806;2023-11-19T01:31:22;4.93;;;1.73;;
50851;SDS011;43953;45.508;-122.806;2023-11-19T01:31:54;5.30;;;1.75;;
50851;SDS011;43953;45.508;-122.806;2023-11-19T01:32:26;4.32;;;1.45;;
50851;SDS011;43953;45.508;-122.806;2023-11-19T01:32:57;2.72;;;1.20;;
50851;SDS011;43953;45.508;-122.806;2023-11-19T01:33:29;3.80;;;1.50;;
50851;SDS011;43953;45.508;-122.806;2023-11-19T01:34:01;2.33;;;1.23;;
50851;SDS011;43953;45.508;-122.806;2023-11-19T01:34:33;5.28;;;1.75;;
50851;SDS011;43953;45.508;-122.806;2023-11-19T01:35:04;6.18;;;1.50;;
50851;SDS011;43953;45.508;-122.806;2023-11-19T01:35:36;3.92;;;1.50;;
50851;SDS011;43953;45.508;-122.806;2023-11-19T01:36:08;5.38;;;1.55;;
50851;SDS011;43953;45.508;-122.806;2023-11-19T01:36:40;2.15;;;1.40;;
50851;SDS011;43953;45.508;-122.806;2023-11-19T01:37:12;5.18;;;1.70;;
50851;SDS011;43953;45.508;-122.806;2023-11-19T01:37:45;8.93;;;1.80;;
50851;SDS011;43953;45.508;-122.806;2023-11-19T01:38:16;5.07;;;1.40;;
50851;SDS011;43953;45.508;-122.806;2023-11-19T01:38:48;5.97;;;1.58;;
50851;SDS011;43953;45.508;-122.806;2023-11-19T01:39:20;3.30;;;1.52;;
50851;SDS011;43953;45.508;-122.806;2023-11-19T01:39:53;4.38;;;1.55;;
50851;SDS011;43953;45.508;-122.806;2023-11-19T01:40:24;2.80;;;1.30;;
50851;SDS011;43953;45.508;-122.806;2023-11-19T01:40:56;2.97;;;1.20;;
50851;SDS011;43953;45.508;-122.806;2023-11-19T01:41:28;3.88;;;1.63;;
50851;SDS011;43953;45.508;-122.806;2023-11-19T01:42:00;2.60;;;1.00;;
50851;SDS011;43953;45.508;-122.806;2023-11-19T01:42:41;3.47;;;1.30;;
50851;SDS011;43953;45.508;-122.806;2023-11-19T01:43:22;3.75;;;1.25;;
50851;SDS011;43953;45.508;-122.806;2023-11-19T01:44:08;2.40;;;1.10;;
50851;SDS011;43953;45.508;-122.806;2023-11-19T01:44:53;2.45;;;1.20;;
50851;SDS011;43953;45.508;-122.806;2023-11-19T01:45:29;3.88;;;1.40;;
50851;SDS011;43953;45.508;-122.806;2023-11-19T01:46:02;1.98;;;1.15;;
50851;SDS011;43953;45.508;-122.806;2023-11-19T01:46:37;2.83;;;1.40;;
50851;SDS011;43953;45.508;-122.806;2023-11-19T01:47:11;3.08;;;1.10;;
50851;SDS011;43953;45.508;-122.806;2023-11-19T01:47:43;3.03;;;1.30;;
50851;SDS011;43953;45.508;-122.806;2023-11-19T01:48:15;3.65;;;1.50;;
50851;SDS011;43953;45.508;-122.806;2023-11-19T01:48:46;2.95;;;1.15;;
50851;SDS011;43953;45.508;-122.806;2023-11-19T01:49:18;3.17;;;1.40;;
50851;SDS011;43953;45.508;-122.806;2023-11-19T01:49:51;5.85;;;1.38;;
50851;SDS011;43953;45.508;-122.806;2023-11-19T01:50:26;5.18;;;1.42;;
50851;SDS011;43953;45.508;-122.806;2023-11-19T01:50:59;6.88;;;1.70;;
50851;SDS011;43953;45.508;-122.806;2023-11-19T01:51:32;6.70;;;1.45;;
50851;SDS011;43953;45.508;-122.806;2023-11-19T01:52:03;4.57;;;1.35;;
50851;SDS011;43953;45.508;-122.806;2023-11-19T01:52:36;4.30;;;1.30;;
50851;SDS011;43953;45.508;-122.806;2023-11-19T01:53:09;3.70;;;1.35;;
50851;SDS011;43953;45.508;-122.806;2023-11-19T01:53:40;3.63;;;1.60;;
50851;SDS011;43953;45.508;-122.806;2023-11-19T01:54:12;5.00;;;1.90;;
50851;SDS011;43953;45.508;-122.806;2023-11-19T01:54:46;9.55;;;1.60;;
50851;SDS011;43953;45.508;-122.806;2023-11-19T01:55:18;6.32;;;2.10;;
50851;SDS011;43953;45.508;-122.806;2023-11-19T01:55:51;5.68;;;1.50;;
50851;SDS011;43953;45.508;-122.806;2023-11-19T01:56:23;9.32;;;2.03;;
50851;SDS011;43953;45.508;-122.806;2023-11-19T01:56:56;5.28;;;1.80;;
50851;SDS011;43953;45.508;-122.806;2023-11-19T01:57:28;5.05;;;1.75;;
50851;SDS011;43953;45.508;-122.806;2023-11-19T01:58:00;8.43;;;1.88;;
50851;SDS011;43953;45.508;-122.806;2023-11-19T01:58:33;4.28;;;1.80;;
50851;SDS011;43953;45.508;-122.806;2023-11-19T01:59:05;4.88;;;1.60;;
50851;SDS011;43953;45.508;-122.806;2023-11-19T01:59:38;5.00;;;1.63;;
50851;SDS011;43953;45.508;-122.806;2023-11-19T02:00:10;7.40;;;1.60;;
50851;SDS011;43953;45.508;-122.806;2023-11-19T02:00:44;4.75;;;1.85;;
50851;SDS011;43953;45.508;-122.806;2023-11-19T02:01:16;7.53;;;1.90;;
50851;SDS011;43953;45.508;-122.806;2023-11-19T02:01:48;8.20;;;1.55;;
50851;SDS011;43953;45.508;-122.806;2023-11-19T02:02:22;4.00;;;1.73;;
50851;SDS011;43953;45.508;-122.806;2023-11-19T02:02:53;5.05;;;1.70;;
50851;SDS011;43953;45.508;-122.806;2023-11-19T02:03:25;7.38;;;1.92;;
50851;SDS011;43953;45.508;-122.806;2023-11-19T02:04:00;8.15;;;1.67;;
50851;SDS011;43953;45.508;-122.806;2023-11-19T02:04:32;7.70;;;1.50;;
50851;SDS011;43953;45.508;-122.806;2023-11-19T02:05:06;7.10;;;1.70;;
50851;SDS011;43953;45.508;-122.806;2023-11-19T02:05:38;5.80;;;2.00;;
50851;SDS011;43953;45.508;-122.806;2023-11-19T02:06:10;5.95;;;1.67;;
50851;SDS011;43953;45.508;-122.806;2023-11-19T02:06:42;5.75;;;1.75;;
50851;SDS011;43953;45.508;-122.806;2023-11-19T02:07:16;9.38;;;2.35;;
50851;SDS011;43953;45.508;-122.806;2023-11-19T02:07:51;6.55;;;1.60;;
50851;SDS011;43953;45.508;-122.806;2023-11-19T02:08:22;3.92;;;1.77;;
50851;SDS011;43953;45.508;-122.806;2023-11-19T02:08:54;9.43;;;1.95;;
50851;SDS011;43953;45.508;-122.806;2023-11-19T02:09:26;3.38;;;1.30;;
50851;SDS011;43953;45.508;-122.806;2023-11-19T02:09:58;5.03;;;1.60;;
50851;SDS011;43953;45.508;-122.806;2023-11-19T02:10:31;6.28;;;1.67;;
50851;SDS011;43953;45.508;-122.806;2023-11-19T02:11:02;5.70;;;1.52;;
50851;SDS011;43953;45.508;-122.806;2023-11-19T02:11:34;4.35;;;1.75;;
50851;SDS011;43953;45.508;-122.806;2023-11-19T02:12:06;5.05;;;1.63;;
50851;SDS011;43953;45.508;-122.806;2023-11-19T02:12:40;6.68;;;1.77;;
50851;SDS011;43953;45.508;-122.806;2023-11-19T02:13:15;7.82;;;1.88;;
50851;SDS011;43953;45.508;-122.806;2023-11-19T02:13:47;5.35;;;2.20;;
50851;SDS011;43953;45.508;-122.806;2023-11-19T02:14:19;6.15;;;1.52;;
50851;SDS011;43953;45.508;-122.806;2023-11-19T02:14:55;6.63;;;1.92;;
50851;SDS011;43953;45.508;-122.806;2023-11-19T02:15:27;5.18;;;2.22;;
50851;SDS011;43953;45.508;-122.806;2023-11-19T02:15:58;8.43;;;1.90;;
50851;SDS011;43953;45.508;-122.806;2023-11-19T02:16:30;9.02;;;2.00;;
50851;SDS011;43953;45.508;-122.806;2023-11-19T02:17:02;10.38;;;2.10;;
50851;SDS011;43953;45.508;-122.806;2023-11-19T02:17:33;5.88;;;1.90;;
50851;SDS011;43953;45.508;-122.806;2023-11-19T02:18:21;15.40;;;2.90;;
50851;SDS011;43953;45.508;-122.806;2023-11-19T02:18:58;7.30;;;2.20;;
50851;SDS011;43953;45.508;-122.806;2023-11-19T02:19:30;5.47;;;1.80;;
50851;SDS011;43953;45.508;-122.806;2023-11-19T02:20:02;8.15;;;2.95;;
50851;SDS011;43953;45.508;-122.806;2023-11-19T02:20:37;7.53;;;1.75;;
50851;SDS011;43953;45.508;-122.806;2023-11-19T02:21:08;3.20;;;1.73;;
50851;SDS011;43953;45.508;-122.806;2023-11-19T02:21:41;7.75;;;2.17;;
50851;SDS011;43953;45.508;-122.806;2023-11-19T02:22:13;5.55;;;2.20;;
50851;SDS011;43953;45.508;-122.806;2023-11-19T02:22:45;12.63;;;2.30;;
50851;SDS011;43953;45.508;-122.806;2023-11-19T02:23:18;4.95;;;1.67;;
50851;SDS011;43953;45.508;-122.806;2023-11-19T02:23:51;7.55;;;1.88;;
50851;SDS011;43953;45.508;-122.806;2023-11-19T02:24:23;8.15;;;1.98;;
50851;SDS011;43953;45.508;-122.806;2023-11-19T02:24:59;5.00;;;2.10;;
50851;SDS011;43953;45.508;-122.806;2023-11-19T02:25:35;4.90;;;2.00;;
50851;SDS011;43953;45.508;-122.806;2023-11-19T02:26:16;7.13;;;2.00;;
50851;SDS011;43953;45.508;-122.806;2023-11-19T02:27:07;5.47;;;1.58;;
50851;SDS011;43953;45.508;-122.806;2023-11-19T02:27:49;6.10;;;1.50;;
50851;SDS011;43953;45.508;-122.806;2023-11-19T02:28:58;3.78;;;1.63;;
50851;SDS011;43953;45.508;-122.806;2023-11-19T02:29:30;8.82;;;2.47;;
50851;SDS011;43953;45.508;-122.806;2023-11-19T02:30:01;6.53;;;2.05;;
50851;SDS011;43953;45.508;-122.806;2023-11-19T02:30:37;6.13;;;2.15;;
50851;SDS011;43953;45.508;-122.806;2023-11-19T02:31:09;5.50;;;2.08;;
50851;SDS011;43953;45.508;-122.806;2023-11-19T02:31:41;9.27;;;1.95;;
50851;SDS011;43953;45.508;-122.806;2023-11-19T02:32:13;4.43;;;1.55;;
50851;SDS011;43953;45.508;-122.806;2023-11-19T02:32:47;6.78;;;1.80;;
50851;SDS011;43953;45.508;-122.806;2023-11-19T02:33:19;7.82;;;1.80;;
50851;SDS011;43953;45.508;-122.806;2023-11-19T02:33:50;5.90;;;1.80;;
50851;SDS011;43953;45.508;-122.806;2023-11-19T02:34:22;5.22;;;1.85;;
50851;SDS011;43953;45.508;-122.806;2023-11-19T02:34:54;5.95;;;1.70;;
50851;SDS011;43953;45.508;-122.806;2023-11-19T02:35:26;4.13;;;1.65;;
50851;SDS011;43953;45.508;-122.806;2023-11-19T02:35:58;6.50;;;2.20;;
50851;SDS011;43953;45.508;-122.806;2023-11-19T02:36:30;5.85;;;1.80;;
50851;SDS011;43953;45.508;-122.806;2023-11-19T02:37:02;4.55;;;1.73;;
50851;SDS011;43953;45.508;-122.806;2023-11-19T02:37:36;6.50;;;1.90;;
50851;SDS011;43953;45.508;-122.806;2023-11-19T02:38:09;5.30;;;2.00;;
50851;SDS011;43953;45.508;-122.806;2023-11-19T02:38:41;6.88;;;2.35;;
50851;SDS011;43953;45.508;-122.806;2023-11-19T02:39:13;7.78;;;1.63;;
50851;SDS011;43953;45.508;-122.806;2023-11-19T02:39:45;5.30;;;1.85;;
50851;SDS011;43953;45.508;-122.806;2023-11-19T02:40:17;4.22;;;2.10;;
50851;SDS011;43953;45.508;-122.806;2023-11-19T02:40:49;4.13;;;1.80;;
50851;SDS011;43953;45.508;-122.806;2023-11-19T02:41:20;4.13;;;1.50;;
50851;SDS011;43953;45.508;-122.806;2023-11-19T02:41:52;2.17;;;1.52;;
50851;SDS011;43953;45.508;-122.806;2023-11-19T02:42:24;4.25;;;1.75;;
50851;SDS011;43953;45.508;-122.806;2023-11-19T02:42:55;2.22;;;1.45;;
50851;SDS011;43953;45.508;-122.806;2023-11-19T02:43:28;3.20;;;1.65;;
50851;SDS011;43953;45.508;-122.806;2023-11-19T02:44:02;2.95;;;1.30;;
50851;SDS011;43953;45.508;-122.806;2023-11-19T02:44:36;3.70;;;1.20;;
50851;SDS011;43953;45.508;-122.806;2023-11-19T02:45:08;4.18;;;1.30;;
50851;SDS011;43953;45.508;-122.806;2023-11-19T02:45:44;2.30;;;1.20;;
50851;SDS011;43953;45.508;-122.806;2023-11-19T02:46:16;2.30;;;0.98;;
50851;SDS011;43953;45.508;-122.806;2023-11-19T02:46:48;2.20;;;1.35;;
50851;SDS011;43953;45.508;-122.806;2023-11-19T02:47:19;1.63;;;1.10;;
50851;SDS011;43953;45.508;-122.806;2023-11-19T02:47:52;3.33;;;1.10;;
50851;SDS011;43953;45.508;-122.806;2023-11-19T02:48:25;1.55;;;1.10;;
50851;SDS011;43953;45.508;-122.806;2023-11-19T02:48:57;2.03;;;1.00;;
50851;SDS011;43953;45.508;-122.806;2023-11-19T02:49:28;2.33;;;1.15;;
50851;SDS011;43953;45.508;-122.806;2023-11-19T02:50:01;2.47;;;1.30;;
50851;SDS011;43953;45.508;-122.806;2023-11-19T02:50:33;3.53;;;1.27;;
50851;SDS011;43953;45.508;-122.806;2023-11-19T02:51:05;2.17;;;1.23;;
50851;SDS011;43953;45.508;-122.806;2023-11-19T02:51:40;5.38;;;1.40;;
50851;SDS011;43953;45.508;-122.806;2023-11-19T02:52:12;2.75;;;1.45;;
50851;SDS011;43953;45.508;-122.806;2023-11-19T02:52:44;2.17;;;1.30;;
50851;SDS011;43953;45.508;-122.806;2023-11-19T02:53:16;3.97;;;1.58;;
50851;SDS011;43953;45.508;-122.806;2023-11-19T02:53:48;4.18;;;1.20;;
50851;SDS011;43953;45.508;-122.806;2023-11-19T02:54:20;2.88;;;1.58;;
50851;SDS011;43953;45.508;-122.806;2023-11-19T02:54:57;3.33;;;1.25;;
50851;SDS011;43953;45.508;-122.806;2023-11-19T02:55:29;3.55;;;1.10;;
50851;SDS011;43953;45.508;-122.806;2023-11-19T02:56:07;4.50;;;1.25;;
50851;SDS011;43953;45.508;-122.806;2023-11-19T02:56:59;1.40;;;1.15;;
50851;SDS011;43953;45.508;-122.806;2023-11-19T02:57:32;2.47;;;1.55;;
50851;SDS011;43953;45.508;-122.806;2023-11-19T02:58:04;3.45;;;1.00;;
50851;SDS011;43953;45.508;-122.806;2023-11-19T02:58:50;5.00;;;1.50;;
50851;SDS011;43953;45.508;-122.806;2023-11-19T02:59:22;2.60;;;1.20;;
50851;SDS011;43953;45.508;-122.806;2023-11-19T03:00:09;4.32;;;1.35;;
50851;SDS011;43953;45.508;-122.806;2023-11-19T03:00:43;2.35;;;1.30;;
50851;SDS011;43953;45.508;-122.806;2023-11-19T03:01:26;1.20;;;1.10;;
50851;SDS011;43953;45.508;-122.806;2023-11-19T03:02:00;2.10;;;1.10;;
50851;SDS011;43953;45.508;-122.806;2023-11-19T03:02:32;6.15;;;1.70;;
50851;SDS011;43953;45.508;-122.806;2023-11-19T03:03:14;5.28;;;2.08;;
50851;SDS011;43953;45.508;-122.806;2023-11-19T03:03:51;3.13;;;1.30;;
50851;SDS011;43953;45.508;-122.806;2023-11-19T03:04:27;4.32;;;1.50;;
50851;SDS011;43953;45.508;-122.806;2023-11-19T03:04:59;4.57;;;1.27;;
50851;SDS011;43953;45.508;-122.806;2023-11-19T03:05:31;2.70;;;1.30;;
50851;SDS011;43953;45.508;-122.806;2023-11-19T03:06:03;3.35;;;1.25;;
50851;SDS011;43953;45.508;-122.806;2023-11-19T03:06:38;3.08;;;1.40;;
50851;SDS011;43953;45.508;-122.806;2023-11-19T03:07:10;4.47;;;1.33;;
50851;SDS011;43953;45.508;-122.806;2023-11-19T03:07:42;3.20;;;1.40;;
50851;SDS011;43953;45.508;-122.806;2023-11-19T03:08:17;4.75;;;1.30;;
50851;SDS011;43953;45.508;-122.806;2023-11-19T03:08:49;2.53;;;1.40;;
50851;SDS011;43953;45.508;-122.806;2023-11-19T03:09:20;2.90;;;1.38;;
50851;SDS011;43953;45.508;-122.806;2023-11-19T03:09:52;3.00;;;1.40;;